createdAt,value
2022-09-28T00:01:41.595Z,2.58
2022-09-28T00:04:17.699Z,3.67
2022-09-28T00:06:46.833Z,6.13
2022-09-28T00:09:16.024Z,4.10
2022-09-28T00:11:45.649Z,3.40
2022-09-28T00:14:15.106Z,4.97
2022-09-28T00:16:45.732Z,3.88
2022-09-28T00:19:17.494Z,3.25
2022-09-28T00:27:00.287Z,4.50
2022-09-28T00:29:36.663Z,3.92
2022-09-28T00:32:08.164Z,5.70
2022-09-28T00:34:42.802Z,3.80
2022-09-28T00:37:12.529Z,4.93
2022-09-28T00:39:43.548Z,4.55
2022-09-28T00:42:16.021Z,4.80
2022-09-28T00:44:49.757Z,2.95
2022-09-28T00:47:45.080Z,5.22
2022-09-28T00:50:30.917Z,6.97
2022-09-28T00:53:07.100Z,5.80
2022-09-28T00:55:42.298Z,3.17
2022-09-28T00:58:15.082Z,4.32
2022-09-28T01:00:44.556Z,2.78
2022-09-28T01:03:15.295Z,7.75
2022-09-28T01:05:49.212Z,3.17
2022-09-28T01:08:21.946Z,3.13
2022-09-28T01:13:34.302Z,3.22
2022-09-28T01:16:14.915Z,4.15
2022-09-28T01:19:00.958Z,3.15
2022-09-28T01:24:43.837Z,2.63
2022-09-28T01:27:17.508Z,2.78
2022-09-28T01:29:54.609Z,4.65
2022-09-28T01:32:38.284Z,3.58
2022-09-28T01:35:12.689Z,5.10
2022-09-28T01:37:53.368Z,3.08
2022-09-28T01:40:35.796Z,4.97
2022-09-28T01:43:11.289Z,2.45
2022-09-28T01:45:45.876Z,3.28
2022-09-28T01:48:26.355Z,1.95
2022-09-28T01:51:01.253Z,1.98
2022-09-28T01:53:37.813Z,2.78
2022-09-28T01:56:19.228Z,5.25
2022-09-28T01:58:54.956Z,4.25
2022-09-28T02:01:29.777Z,3.05
2022-09-28T02:04:09.198Z,2.92
2022-09-28T02:06:48.742Z,1.92
2022-09-28T02:09:33.016Z,16.73
2022-09-28T02:12:08.456Z,1.88
2022-09-28T02:14:45.913Z,1.85
2022-09-28T02:17:15.716Z,4.97
2022-09-28T02:19:46.035Z,1.52
2022-09-28T02:22:27.550Z,1.30
2022-09-28T02:25:01.079Z,1.33
2022-09-28T02:27:38.408Z,1.30
2022-09-28T02:30:10.937Z,2.35
2022-09-28T02:32:49.580Z,1.35
2022-09-28T02:35:22.651Z,1.02
2022-09-28T02:37:52.270Z,0.98
2022-09-28T02:40:24.251Z,1.73
2022-09-28T02:43:11.466Z,1.38
2022-09-28T02:45:58.999Z,0.90
2022-09-28T02:49:04.894Z,0.77
2022-09-28T02:51:59.118Z,1.27
2022-09-28T02:54:45.768Z,1.77
2022-09-28T02:57:29.641Z,0.90
2022-09-28T03:00:08.048Z,1.30
2022-09-28T03:02:55.448Z,1.52
2022-09-28T03:05:33.316Z,1.05
2022-09-28T03:08:05.314Z,1.17
2022-09-28T03:10:46.166Z,1.50
2022-09-28T03:13:16.776Z,1.23
2022-09-28T03:15:48.757Z,0.70
2022-09-28T03:18:21.628Z,1.17
2022-09-28T03:20:50.731Z,0.77
2022-09-28T03:23:25.491Z,1.88
2022-09-28T03:25:55.736Z,1.27
2022-09-28T03:28:25.439Z,0.93
2022-09-28T03:30:54.735Z,1.52
2022-09-28T03:33:26.125Z,1.90
2022-09-28T03:35:55.843Z,1.40
2022-09-28T03:38:26.033Z,2.22
2022-09-28T03:40:57.019Z,1.75
2022-09-28T03:43:27.577Z,0.80
2022-09-28T03:46:01.793Z,1.45
2022-09-28T03:48:38.196Z,1.42
2022-09-28T03:51:13.883Z,1.35
2022-09-28T03:53:47.953Z,2.17
2022-09-28T03:56:18.039Z,1.45
2022-09-28T03:58:48.142Z,1.43
2022-09-28T04:01:18.580Z,1.02
2022-09-28T04:03:56.062Z,1.58
2022-09-28T04:06:32.414Z,1.10
2022-09-28T04:09:01.830Z,1.42
2022-09-28T04:11:47.515Z,1.30
2022-09-28T04:14:25.751Z,1.10
2022-09-28T04:16:55.276Z,1.77
2022-09-28T04:19:28.522Z,1.13
2022-09-28T04:22:12.447Z,1.20
2022-09-28T04:24:51.767Z,1.63
2022-09-28T04:27:34.967Z,1.60
2022-09-28T04:30:05.641Z,1.00
2022-09-28T04:32:40.299Z,2.00
2022-09-28T04:35:13.681Z,1.67
2022-09-28T04:37:43.155Z,3.25
2022-09-28T04:40:12.810Z,1.45
2022-09-28T04:42:41.950Z,1.70
2022-09-28T04:45:12.347Z,1.60
2022-09-28T04:50:35.558Z,1.80
2022-09-28T04:53:24.361Z,2.42
2022-09-28T04:56:01.351Z,1.67
2022-09-28T04:58:31.625Z,1.33
2022-09-28T05:01:03.219Z,3.30
2022-09-28T05:04:01.999Z,1.23
2022-09-28T05:06:56.388Z,2.00
2022-09-28T05:09:26.153Z,1.77
2022-09-28T05:11:56.036Z,2.65
2022-09-28T05:14:27.699Z,3.45
2022-09-28T05:16:56.917Z,3.47
2022-09-28T05:19:29.857Z,1.85
2022-09-28T05:22:10.921Z,2.28
2022-09-28T05:24:44.506Z,2.33
2022-09-28T05:27:13.858Z,2.03
2022-09-28T05:29:43.637Z,1.90
2022-09-28T05:32:32.519Z,1.75
2022-09-28T05:35:13.814Z,2.65
2022-09-28T05:37:54.652Z,2.75
2022-09-28T05:40:24.719Z,3.08
2022-09-28T05:42:53.685Z,1.58
2022-09-28T05:45:23.203Z,2.95
2022-09-28T05:47:52.589Z,2.92
2022-09-28T05:50:23.923Z,2.83
2022-09-28T05:53:07.217Z,3.65
2022-09-28T05:55:42.628Z,4.18
2022-09-28T05:58:11.656Z,3.63
2022-09-28T06:00:41.161Z,3.83
2022-09-28T06:03:14.131Z,3.58
2022-09-28T06:05:48.424Z,4.78
2022-09-28T06:08:19.592Z,3.83
2022-09-28T06:11:01.190Z,3.38
2022-09-28T06:13:35.768Z,3.28
2022-09-28T06:16:07.262Z,4.45
2022-09-28T06:18:37.354Z,4.10
2022-09-28T06:21:29.578Z,4.00
2022-09-28T06:24:05.900Z,5.10
2022-09-28T06:26:35.077Z,6.13
2022-09-28T06:29:04.489Z,4.47
2022-09-28T06:31:33.826Z,6.00
2022-09-28T06:34:04.315Z,5.55
2022-09-28T06:36:34.499Z,4.75
2022-09-28T06:39:06.813Z,5.25
2022-09-28T06:41:43.791Z,5.53
2022-09-28T06:44:22.099Z,5.95
2022-09-28T06:47:11.140Z,4.78
2022-09-28T06:50:04.018Z,5.30
2022-09-28T06:52:59.636Z,7.43
2022-09-28T06:56:00.774Z,6.63
2022-09-28T06:58:31.106Z,4.70
2022-09-28T07:01:01.400Z,4.70
2022-09-28T07:03:36.025Z,6.80
2022-09-28T07:06:31.262Z,6.47
2022-09-28T07:09:31.195Z,4.95
2022-09-28T07:12:27.748Z,7.55
2022-09-28T07:15:14.318Z,6.38
2022-09-28T07:17:59.707Z,5.00
2022-09-28T07:20:33.781Z,5.38
2022-09-28T07:23:17.287Z,4.93
2022-09-28T07:26:23.549Z,6.55
2022-09-28T07:29:08.630Z,4.38
2022-09-28T07:31:46.290Z,4.22
2022-09-28T07:34:41.085Z,4.45
2022-09-28T07:37:23.787Z,4.05
2022-09-28T07:40:14.819Z,4.55
2022-09-28T07:42:44.027Z,4.15
2022-09-28T07:45:21.581Z,3.70
2022-09-28T07:47:51.043Z,4.90
2022-09-28T07:50:39.477Z,3.95
2022-09-28T07:53:16.555Z,4.10
2022-09-28T07:56:21.697Z,5.15
2022-09-28T07:59:02.440Z,4.95
2022-09-28T08:01:53.026Z,4.05
2022-09-28T08:04:24.926Z,5.57
2022-09-28T08:06:59.411Z,5.45
2022-09-28T08:09:29.061Z,4.38
2022-09-28T08:12:17.988Z,7.43
2022-09-28T08:14:59.746Z,5.05
2022-09-28T08:17:51.979Z,4.75
2022-09-28T08:20:32.181Z,4.93
2022-09-28T08:23:05.588Z,4.93
2022-09-28T08:25:37.956Z,5.63
2022-09-28T08:28:12.805Z,5.45
2022-09-28T08:30:49.042Z,4.10
2022-09-28T08:33:35.654Z,5.00
2022-09-28T08:36:23.719Z,4.63
2022-09-28T08:38:59.408Z,5.22
2022-09-28T08:41:41.071Z,5.93
2022-09-28T08:47:46.659Z,8.10
2022-09-28T08:50:30.606Z,4.72
2022-09-28T08:53:14.203Z,6.68
2022-09-28T08:56:06.137Z,6.03
2022-09-28T08:58:40.324Z,7.47
2022-09-28T09:01:15.742Z,5.32
2022-09-28T09:03:52.162Z,5.32
2022-09-28T09:06:58.364Z,5.93
2022-09-28T09:09:52.597Z,4.38
2022-09-28T09:12:34.355Z,5.05
2022-09-28T09:15:29.752Z,4.85
2022-09-28T09:18:19.753Z,6.20
2022-09-28T09:21:14.068Z,4.15
2022-09-28T09:23:56.024Z,7.25
2022-09-28T09:26:38.688Z,6.00
2022-09-28T09:29:41.082Z,5.75
2022-09-28T09:32:30.311Z,4.63
2022-09-28T09:35:24.043Z,4.40
2022-09-28T09:38:33.308Z,6.40
2022-09-28T09:41:36.358Z,4.25
2022-09-28T09:44:49.386Z,3.40
2022-09-28T09:50:29.433Z,5.55
2022-09-28T09:53:12.445Z,4.68
2022-09-28T09:55:45.600Z,5.43
2022-09-28T09:58:55.667Z,4.65
2022-09-28T10:01:38.895Z,6.57
2022-09-28T10:04:46.689Z,6.93
2022-09-28T10:07:35.325Z,5.93
2022-09-28T10:10:05.349Z,7.30
2022-09-28T10:12:43.252Z,6.38
2022-09-28T10:15:24.954Z,6.40
2022-09-28T10:18:20.854Z,6.28
2022-09-28T10:21:08.957Z,6.50
2022-09-28T10:24:04.613Z,6.55
2022-09-28T10:26:39.078Z,5.32
2022-09-28T10:29:17.515Z,5.90
2022-09-28T10:31:49.827Z,5.15
2022-09-28T10:34:36.471Z,6.90
2022-09-28T10:37:13.008Z,8.43
2022-09-28T10:40:43.441Z,7.00
2022-09-28T10:43:24.409Z,8.65
2022-09-28T10:46:07.082Z,7.00
2022-09-28T10:51:43.080Z,8.48
2022-09-28T10:54:19.577Z,7.53
2022-09-28T10:56:52.492Z,8.00
2022-09-28T10:59:44.114Z,7.88
2022-09-28T11:02:34.744Z,7.47
2022-09-28T11:05:25.474Z,10.82
2022-09-28T11:07:59.619Z,8.13
2022-09-28T11:13:16.320Z,9.77
2022-09-28T11:15:59.385Z,11.00
2022-09-28T11:18:35.062Z,9.35
2022-09-28T11:21:17.492Z,9.77
2022-09-28T11:24:06.045Z,10.13
2022-09-28T11:26:42.249Z,10.55
2022-09-28T11:29:26.238Z,11.63
2022-09-28T11:32:21.415Z,12.48
2022-09-28T11:35:20.298Z,13.25
2022-09-28T11:38:05.466Z,12.32
2022-09-28T11:41:17.955Z,12.15
2022-09-28T11:44:01.984Z,13.73
2022-09-28T11:46:41.588Z,14.75
2022-09-28T11:49:34.259Z,14.38
2022-09-28T11:52:09.555Z,13.02
2022-09-28T11:54:52.462Z,16.88
2022-09-28T12:00:01.936Z,12.15
2022-09-28T12:02:38.664Z,15.18
2022-09-28T12:05:20.952Z,13.98
2022-09-28T12:08:06.337Z,12.18
2022-09-28T12:11:01.633Z,11.77
2022-09-28T12:13:54.493Z,11.65
2022-09-28T12:16:53.424Z,13.82
2022-09-28T12:19:22.057Z,12.18
2022-09-28T12:21:53.769Z,10.10
2022-09-28T12:24:28.411Z,12.80
2022-09-28T12:27:05.457Z,9.40
2022-09-28T12:29:40.757Z,11.88
2022-09-28T12:32:19.879Z,9.30
2022-09-28T12:34:48.962Z,10.68
2022-09-28T12:37:36.998Z,9.35
2022-09-28T12:40:27.519Z,10.23
2022-09-28T12:43:17.205Z,11.68
2022-09-28T12:46:16.681Z,10.82
2022-09-28T12:56:44.091Z,12.07
2022-09-28T12:59:22.555Z,8.55
2022-09-28T13:02:36.978Z,9.50
2022-09-28T13:05:27.678Z,10.35
2022-09-28T13:08:05.246Z,9.70
2022-09-28T13:10:42.590Z,9.48
2022-09-28T13:13:32.215Z,9.75
2022-09-28T13:16:07.314Z,11.27
2022-09-28T13:18:50.935Z,9.98
2022-09-28T13:21:29.078Z,10.82
2022-09-28T13:24:20.938Z,11.38
2022-09-28T13:27:12.023Z,10.63
2022-09-28T13:29:44.527Z,10.80
2022-09-28T13:32:14.807Z,9.82
2022-09-28T13:34:44.401Z,9.73
2022-09-28T13:37:25.331Z,15.20
2022-09-28T13:42:41.600Z,13.10
2022-09-28T13:45:40.949Z,9.98
2022-09-28T13:48:16.875Z,8.27
2022-09-28T13:51:06.562Z,8.75
2022-09-28T13:53:52.500Z,11.68
2022-09-28T13:56:43.470Z,11.45
2022-09-28T13:59:20.260Z,10.55
2022-09-28T14:01:56.740Z,8.50
2022-09-28T14:04:54.821Z,10.85
2022-09-28T14:10:20.463Z,7.30
2022-09-28T14:12:51.258Z,9.23
2022-09-28T14:15:48.034Z,11.90
2022-09-28T14:18:27.456Z,7.85
2022-09-28T14:21:14.191Z,7.28
2022-09-28T14:23:58.992Z,8.65
2022-09-28T14:26:56.456Z,7.97
2022-09-28T14:29:30.909Z,11.55
2022-09-28T14:32:01.065Z,7.55
2022-09-28T14:34:39.635Z,7.78
2022-09-28T14:37:36.416Z,12.38
2022-09-28T14:40:30.994Z,7.40
2022-09-28T14:43:27.868Z,10.00
2022-09-28T14:46:26.595Z,8.43
2022-09-28T14:48:57.086Z,11.57
2022-09-28T14:52:02.565Z,7.80
2022-09-28T14:54:44.910Z,10.35
2022-09-28T14:57:23.761Z,11.18
2022-09-28T14:59:53.741Z,8.15
2022-09-28T15:02:26.634Z,10.18
2022-09-28T15:04:59.549Z,15.73
2022-09-28T15:07:35.250Z,5.40
2022-09-28T15:10:06.820Z,10.55
2022-09-28T15:12:38.471Z,9.55
2022-09-28T15:15:24.822Z,9.02
2022-09-28T15:18:05.296Z,8.90
2022-09-28T15:20:42.460Z,8.13
2022-09-28T15:23:34.739Z,6.85
2022-09-28T15:26:06.803Z,9.85
2022-09-28T15:28:38.952Z,7.60
2022-09-28T15:31:08.290Z,7.40
2022-09-28T15:33:56.260Z,8.38
2022-09-28T15:36:28.166Z,6.15
2022-09-28T15:41:31.668Z,7.32
2022-09-28T15:44:34.992Z,9.10
2022-09-28T15:47:15.328Z,7.78
2022-09-28T15:49:48.616Z,7.57
2022-09-28T15:52:27.192Z,6.82
2022-09-28T15:55:00.583Z,7.35
2022-09-28T15:57:36.571Z,8.40
2022-09-28T16:00:09.568Z,5.80
2022-09-28T16:03:01.579Z,7.15
2022-09-28T16:05:40.007Z,7.47
2022-09-28T16:08:25.937Z,5.35
2022-09-28T16:11:10.584Z,7.97
2022-09-28T16:13:47.791Z,5.72
2022-09-28T16:16:18.577Z,7.82
2022-09-28T16:18:55.800Z,6.50
2022-09-28T16:21:37.359Z,4.65
2022-09-28T16:24:08.153Z,7.25
2022-09-28T16:26:40.428Z,7.60
2022-09-28T16:29:11.551Z,6.95
2022-09-28T16:31:45.137Z,5.65
2022-09-28T16:34:22.320Z,7.10
2022-09-28T16:36:52.187Z,6.15
2022-09-28T16:39:21.455Z,8.68
2022-09-28T16:41:57.061Z,5.30
2022-09-28T16:44:30.293Z,5.53
2022-09-28T16:47:07.138Z,4.28
2022-09-28T16:52:05.335Z,5.40
2022-09-28T16:54:54.832Z,8.23
2022-09-28T16:57:26.083Z,6.43
2022-09-28T16:59:55.220Z,4.20
2022-09-28T17:05:15.899Z,3.83
2022-09-28T17:07:46.309Z,5.32
2022-09-28T17:10:19.494Z,5.57
2022-09-28T17:12:50.676Z,5.20
2022-09-28T17:15:20.148Z,6.68
2022-09-28T17:17:55.296Z,4.10
2022-09-28T17:20:35.934Z,5.38
2022-09-28T17:23:05.124Z,6.38
2022-09-28T17:25:34.238Z,3.90
2022-09-28T17:28:07.205Z,7.93
2022-09-28T17:30:36.723Z,6.72
2022-09-28T17:33:05.965Z,3.85
2022-09-28T17:35:39.649Z,7.82
2022-09-28T17:38:08.994Z,8.73
2022-09-28T17:40:38.338Z,7.60
2022-09-28T17:43:10.408Z,5.35
2022-09-28T17:45:48.339Z,4.88
2022-09-28T17:48:20.784Z,6.18
2022-09-28T17:50:50.243Z,3.95
2022-09-28T17:53:19.477Z,5.95
2022-09-28T17:55:53.554Z,5.50
2022-09-28T17:58:24.880Z,6.53
2022-09-28T18:00:54.564Z,4.45
2022-09-28T18:03:25.126Z,3.50
2022-09-28T18:06:03.336Z,5.97
2022-09-28T18:08:32.690Z,3.50
2022-09-28T18:11:02.496Z,4.30
2022-09-28T18:13:34.510Z,6.30
2022-09-28T18:16:04.320Z,5.28
2022-09-28T18:18:39.528Z,4.07
2022-09-28T18:21:09.069Z,4.82
2022-09-28T18:23:40.690Z,5.15
2022-09-28T18:26:13.824Z,6.55
2022-09-28T18:28:45.499Z,7.00
2022-09-28T18:33:44.525Z,5.07
2022-09-28T18:36:20.017Z,5.82
2022-09-28T18:38:49.770Z,5.32
2022-09-28T18:41:19.100Z,4.80
2022-09-28T18:43:52.216Z,7.57
2022-09-28T18:46:21.598Z,9.32
2022-09-28T18:49:01.029Z,4.93
2022-09-28T18:51:30.531Z,6.30
2022-09-28T18:53:59.616Z,6.60
2022-09-28T18:56:29.303Z,4.63
2022-09-28T18:59:01.363Z,4.95
2022-09-28T19:01:31.493Z,6.22
2022-09-28T19:04:02.159Z,7.18
2022-09-28T19:06:32.166Z,6.30
2022-09-28T19:09:02.011Z,7.80
2022-09-28T19:11:31.079Z,9.10
2022-09-28T19:14:08.204Z,8.93
2022-09-28T19:16:42.777Z,5.20
2022-09-28T19:19:14.360Z,6.18
2022-09-28T19:21:45.128Z,7.28
2022-09-28T19:24:15.668Z,6.25
2022-09-28T19:26:48.074Z,6.40
2022-09-28T19:29:19.624Z,8.25
2022-09-28T19:34:18.602Z,8.80
2022-09-28T19:36:48.028Z,6.45
2022-09-28T19:39:17.491Z,6.10
2022-09-28T19:41:55.787Z,6.25
2022-09-28T19:44:28.487Z,7.30
2022-09-28T19:46:59.661Z,6.72
2022-09-28T19:49:32.725Z,7.63
2022-09-28T19:52:12.814Z,6.95
2022-09-28T19:54:43.359Z,7.00
2022-09-28T19:57:12.620Z,6.45
2022-09-28T19:59:43.745Z,8.65
2022-09-28T20:02:13.677Z,7.05
2022-09-28T20:04:42.814Z,9.32
2022-09-28T20:07:11.967Z,6.15
2022-09-28T20:09:41.640Z,8.60
2022-09-28T20:12:11.006Z,6.53
2022-09-28T20:14:40.542Z,6.03
2022-09-28T20:17:13.244Z,5.32
2022-09-28T20:19:42.447Z,7.15
2022-09-28T20:22:11.890Z,6.93
2022-09-28T20:24:41.001Z,6.90
2022-09-28T20:27:10.045Z,5.55
2022-09-28T20:29:39.723Z,7.35
2022-09-28T20:32:08.812Z,6.25
2022-09-28T20:34:40.058Z,5.20
2022-09-28T20:37:09.146Z,4.28
2022-09-28T20:39:42.747Z,5.32
2022-09-28T20:42:15.669Z,6.70
2022-09-28T20:44:50.099Z,6.72
2022-09-28T20:47:19.466Z,6.57
2022-09-28T20:49:56.695Z,5.82
2022-09-28T20:52:30.887Z,6.60
2022-09-28T20:55:00.065Z,6.95
2022-09-28T20:57:29.662Z,6.20
2022-09-28T20:59:59.354Z,6.28
2022-09-28T21:02:28.620Z,6.05
2022-09-28T21:04:59.810Z,4.18
2022-09-28T21:07:28.879Z,8.55
2022-09-28T21:09:59.594Z,5.15
2022-09-28T21:12:29.142Z,4.53
2022-09-28T21:15:01.161Z,3.88
2022-09-28T21:20:15.640Z,5.15
2022-09-28T21:22:44.766Z,5.32
2022-09-28T21:25:14.007Z,4.75
2022-09-28T21:27:43.069Z,4.57
2022-09-28T21:30:13.204Z,4.20
2022-09-28T21:32:50.046Z,5.93
2022-09-28T21:35:21.178Z,4.50
2022-09-28T21:37:50.291Z,5.22
2022-09-28T21:40:20.061Z,3.70
2022-09-28T21:42:52.057Z,3.95
2022-09-28T21:45:21.484Z,4.97
2022-09-28T21:50:32.936Z,5.53
2022-09-28T21:53:02.800Z,4.93
2022-09-28T21:55:31.909Z,3.75
2022-09-28T21:58:01.126Z,3.80
2022-09-28T22:00:30.160Z,4.03
2022-09-28T22:03:04.711Z,5.35
2022-09-28T22:05:36.029Z,5.50
2022-09-28T22:08:05.169Z,6.55
2022-09-28T22:10:34.224Z,5.25
2022-09-28T22:13:04.034Z,4.25
2022-09-28T22:15:33.172Z,4.50
2022-09-28T22:18:02.507Z,4.93
2022-09-28T22:20:31.595Z,4.20
2022-09-28T22:23:12.720Z,4.00
2022-09-28T22:25:47.244Z,6.32
2022-09-28T22:28:16.449Z,3.67
2022-09-28T22:30:46.272Z,3.00
2022-09-28T22:33:15.736Z,5.55
2022-09-28T22:35:45.977Z,2.97
2022-09-28T22:38:17.597Z,4.55
2022-09-28T22:40:54.924Z,4.18
2022-09-28T22:43:26.298Z,3.15
2022-09-28T22:46:09.253Z,3.13
2022-09-28T22:48:45.328Z,3.85
2022-09-28T22:51:14.750Z,2.70
2022-09-28T22:53:45.701Z,4.32
2022-09-28T22:56:18.666Z,3.75
2022-09-28T22:58:48.612Z,3.78
2022-09-28T23:01:19.442Z,4.00
2022-09-28T23:03:49.026Z,5.50
2022-09-28T23:06:24.029Z,5.80
2022-09-28T23:08:55.418Z,3.63
2022-09-28T23:11:24.857Z,3.47
2022-09-28T23:13:54.992Z,3.75
2022-09-28T23:16:26.225Z,3.40
2022-09-28T23:18:56.375Z,5.43
2022-09-28T23:21:27.326Z,3.95
2022-09-28T23:24:00.772Z,4.47
2022-09-28T23:26:31.940Z,3.33
2022-09-28T23:29:01.624Z,5.05
2022-09-28T23:31:32.473Z,4.18
2022-09-28T23:36:37.734Z,4.45
2022-09-28T23:39:08.734Z,3.25
2022-09-28T23:41:42.862Z,3.58
2022-09-28T23:44:11.809Z,3.10
2022-09-28T23:46:41.035Z,2.53
2022-09-28T23:49:10.189Z,3.75
2022-09-28T23:51:39.914Z,2.42
2022-09-28T23:54:11.181Z,4.85
2022-09-28T23:56:40.258Z,3.10
2022-09-28T23:59:09.157Z,2.50
